sensor_id;sensor_type;location;lat;lon;timestamp;temperature;humidity
17381;DHT22;8808;52.478;13.378;2023-09-19T00:00:56;18.50;99.90
17381;DHT22;8808;52.478;13.378;2023-09-19T00:03:23;18.60;99.90
17381;DHT22;8808;52.478;13.378;2023-09-19T00:05:52;18.50;99.90
17381;DHT22;8808;52.478;13.378;2023-09-19T00:08:21;18.50;99.90
17381;DHT22;8808;52.478;13.378;2023-09-19T00:10:50;18.50;99.90
17381;DHT22;8808;52.478;13.378;2023-09-19T00:13:19;18.50;99.90
17381;DHT22;8808;52.478;13.378;2023-09-19T00:15:47;18.50;99.90
17381;DHT22;8808;52.478;13.378;2023-09-19T00:18:16;18.40;99.90
17381;DHT22;8808;52.478;13.378;2023-09-19T00:20:44;18.40;99.90
17381;DHT22;8808;52.478;13.378;2023-09-19T00:23:14;18.40;99.90
17381;DHT22;8808;52.478;13.378;2023-09-19T00:25:42;18.40;99.90
17381;DHT22;8808;52.478;13.378;2023-09-19T00:28:09;18.40;99.90
17381;DHT22;8808;52.478;13.378;2023-09-19T00:30:36;18.40;99.90
17381;DHT22;8808;52.478;13.378;2023-09-19T00:33:04;18.30;99.90
17381;DHT22;8808;52.478;13.378;2023-09-19T00:35:33;18.40;99.90
17381;DHT22;8808;52.478;13.378;2023-09-19T00:38:00;18.40;99.90
17381;DHT22;8808;52.478;13.378;2023-09-19T00:40:28;18.30;99.90
17381;DHT22;8808;52.478;13.378;2023-09-19T00:42:58;18.30;99.90
17381;DHT22;8808;52.478;13.378;2023-09-19T00:45:25;18.30;99.90
17381;DHT22;8808;52.478;13.378;2023-09-19T00:47:53;18.30;99.90
17381;DHT22;8808;52.478;13.378;2023-09-19T00:50:23;18.20;99.90
17381;DHT22;8808;52.478;13.378;2023-09-19T00:52:54;18.30;99.90
17381;DHT22;8808;52.478;13.378;2023-09-19T00:55:22;18.20;99.90
17381;DHT22;8808;52.478;13.378;2023-09-19T00:57:51;18.20;99.90
17381;DHT22;8808;52.478;13.378;2023-09-19T01:00:19;18.20;99.90
17381;DHT22;8808;52.478;13.378;2023-09-19T01:02:50;18.20;99.90
17381;DHT22;8808;52.478;13.378;2023-09-19T01:05:21;18.20;99.90
17381;DHT22;8808;52.478;13.378;2023-09-19T01:07:49;18.10;99.90
17381;DHT22;8808;52.478;13.378;2023-09-19T01:10:19;18.10;99.90
17381;DHT22;8808;52.478;13.378;2023-09-19T01:12:55;18.20;99.90
17381;DHT22;8808;52.478;13.378;2023-09-19T01:15:37;18.10;99.90
17381;DHT22;8808;52.478;13.378;2023-09-19T01:18:14;18.10;99.90
17381;DHT22;8808;52.478;13.378;2023-09-19T01:20:49;18.10;99.90
17381;DHT22;8808;52.478;13.378;2023-09-19T01:23:23;18.10;99.90
17381;DHT22;8808;52.478;13.378;2023-09-19T01:26:18;18.10;99.90
17381;DHT22;8808;52.478;13.378;2023-09-19T01:28:54;18.10;99.90
17381;DHT22;8808;52.478;13.378;2023-09-19T01:31:31;18.00;99.90
17381;DHT22;8808;52.478;13.378;2023-09-19T01:34:02;18.10;99.90
17381;DHT22;8808;52.478;13.378;2023-09-19T01:36:31;18.10;99.90
17381;DHT22;8808;52.478;13.378;2023-09-19T01:39:02;18.10;99.90
17381;DHT22;8808;52.478;13.378;2023-09-19T01:41:47;18.10;99.90
17381;DHT22;8808;52.478;13.378;2023-09-19T01:44:21;18.10;99.90
17381;DHT22;8808;52.478;13.378;2023-09-19T01:46:50;18.00;99.90
17381;DHT22;8808;52.478;13.378;2023-09-19T01:49:25;18.00;99.90
17381;DHT22;8808;52.478;13.378;2023-09-19T01:52:00;18.10;99.90
17381;DHT22;8808;52.478;13.378;2023-09-19T01:54:32;18.10;99.90
17381;DHT22;8808;52.478;13.378;2023-09-19T01:57:07;18.00;99.90
17381;DHT22;8808;52.478;13.378;2023-09-19T01:59:43;18.00;99.90
17381;DHT22;8808;52.478;13.378;2023-09-19T02:02:14;18.00;99.90
17381;DHT22;8808;52.478;13.378;2023-09-19T02:04:41;18.00;99.90
17381;DHT22;8808;52.478;13.378;2023-09-19T02:07:08;18.00;99.90
17381;DHT22;8808;52.478;13.378;2023-09-19T02:09:35;18.00;99.90
17381;DHT22;8808;52.478;13.378;2023-09-19T02:12:05;18.00;99.90
17381;DHT22;8808;52.478;13.378;2023-09-19T02:14:32;17.90;99.90
17381;DHT22;8808;52.478;13.378;2023-09-19T02:17:01;17.90;99.90
17381;DHT22;8808;52.478;13.378;2023-09-19T02:19:30;17.90;99.90
17381;DHT22;8808;52.478;13.378;2023-09-19T02:21:59;17.90;99.90
17381;DHT22;8808;52.478;13.378;2023-09-19T02:24:27;17.80;99.90
17381;DHT22;8808;52.478;13.378;2023-09-19T02:26:54;17.80;99.90
17381;DHT22;8808;52.478;13.378;2023-09-19T02:29:21;17.80;99.90
17381;DHT22;8808;52.478;13.378;2023-09-19T02:31:48;17.80;99.90
17381;DHT22;8808;52.478;13.378;2023-09-19T02:34:15;17.80;99.90
17381;DHT22;8808;52.478;13.378;2023-09-19T02:36:44;17.90;99.90
17381;DHT22;8808;52.478;13.378;2023-09-19T02:39:12;17.90;99.90
17381;DHT22;8808;52.478;13.378;2023-09-19T02:41:39;17.80;99.90
17381;DHT22;8808;52.478;13.378;2023-09-19T02:44:07;17.80;99.90
17381;DHT22;8808;52.478;13.378;2023-09-19T02:46:34;17.80;99.90
17381;DHT22;8808;52.478;13.378;2023-09-19T02:49:03;17.80;99.90
17381;DHT22;8808;52.478;13.378;2023-09-19T02:51:31;17.80;99.90
17381;DHT22;8808;52.478;13.378;2023-09-19T02:54:00;17.80;99.90
17381;DHT22;8808;52.478;13.378;2023-09-19T02:56:28;17.80;99.90
17381;DHT22;8808;52.478;13.378;2023-09-19T02:58:56;17.80;99.90
17381;DHT22;8808;52.478;13.378;2023-09-19T03:01:23;17.80;99.90
17381;DHT22;8808;52.478;13.378;2023-09-19T03:03:50;17.80;99.90
17381;DHT22;8808;52.478;13.378;2023-09-19T03:06:19;17.90;99.90
17381;DHT22;8808;52.478;13.378;2023-09-19T03:08:47;17.90;99.90
17381;DHT22;8808;52.478;13.378;2023-09-19T03:11:18;17.90;99.90
17381;DHT22;8808;52.478;13.378;2023-09-19T03:13:51;17.90;99.90
17381;DHT22;8808;52.478;13.378;2023-09-19T03:16:18;17.90;99.90
17381;DHT22;8808;52.478;13.378;2023-09-19T03:18:47;17.90;99.90
17381;DHT22;8808;52.478;13.378;2023-09-19T03:21:14;17.90;99.90
17381;DHT22;8808;52.478;13.378;2023-09-19T03:23:43;17.90;99.90
17381;DHT22;8808;52.478;13.378;2023-09-19T03:26:11;18.00;99.90
17381;DHT22;8808;52.478;13.378;2023-09-19T03:28:41;17.90;99.90
17381;DHT22;8808;52.478;13.378;2023-09-19T03:31:09;17.90;99.90
17381;DHT22;8808;52.478;13.378;2023-09-19T03:33:36;17.90;99.90
17381;DHT22;8808;52.478;13.378;2023-09-19T03:36:04;17.90;99.90
17381;DHT22;8808;52.478;13.378;2023-09-19T03:38:32;18.00;99.90
17381;DHT22;8808;52.478;13.378;2023-09-19T03:41:00;17.90;99.90
17381;DHT22;8808;52.478;13.378;2023-09-19T03:43:27;18.00;99.90
17381;DHT22;8808;52.478;13.378;2023-09-19T03:45:55;17.90;99.90
17381;DHT22;8808;52.478;13.378;2023-09-19T03:48:22;17.90;99.90
17381;DHT22;8808;52.478;13.378;2023-09-19T03:50:49;17.90;99.90
17381;DHT22;8808;52.478;13.378;2023-09-19T03:53:16;17.90;99.90
17381;DHT22;8808;52.478;13.378;2023-09-19T03:55:45;17.80;99.90
17381;DHT22;8808;52.478;13.378;2023-09-19T03:58:12;17.80;99.90
17381;DHT22;8808;52.478;13.378;2023-09-19T04:00:39;17.90;99.90
17381;DHT22;8808;52.478;13.378;2023-09-19T04:03:08;17.80;99.90
17381;DHT22;8808;52.478;13.378;2023-09-19T04:05:36;17.90;99.90
17381;DHT22;8808;52.478;13.378;2023-09-19T04:08:03;17.80;99.90
17381;DHT22;8808;52.478;13.378;2023-09-19T04:10:31;17.90;99.90
17381;DHT22;8808;52.478;13.378;2023-09-19T04:12:58;17.90;99.90
17381;DHT22;8808;52.478;13.378;2023-09-19T04:15:25;17.90;99.90
17381;DHT22;8808;52.478;13.378;2023-09-19T04:17:53;17.90;99.90
17381;DHT22;8808;52.478;13.378;2023-09-19T04:20:21;17.90;99.90
17381;DHT22;8808;52.478;13.378;2023-09-19T04:22:49;18.00;99.90
17381;DHT22;8808;52.478;13.378;2023-09-19T04:25:16;18.00;99.90
17381;DHT22;8808;52.478;13.378;2023-09-19T04:27:44;17.90;99.90
17381;DHT22;8808;52.478;13.378;2023-09-19T04:30:12;17.80;99.90
17381;DHT22;8808;52.478;13.378;2023-09-19T04:32:40;17.80;99.90
17381;DHT22;8808;52.478;13.378;2023-09-19T04:35:08;17.90;99.90
17381;DHT22;8808;52.478;13.378;2023-09-19T04:37:39;17.90;99.90
17381;DHT22;8808;52.478;13.378;2023-09-19T04:40:08;17.80;99.90
17381;DHT22;8808;52.478;13.378;2023-09-19T04:42:40;17.70;99.90
17381;DHT22;8808;52.478;13.378;2023-09-19T04:45:08;17.70;99.90
17381;DHT22;8808;52.478;13.378;2023-09-19T04:47:36;17.70;99.90
17381;DHT22;8808;52.478;13.378;2023-09-19T04:50:06;17.80;99.90
17381;DHT22;8808;52.478;13.378;2023-09-19T04:52:39;17.60;99.90
17381;DHT22;8808;52.478;13.378;2023-09-19T04:55:08;17.60;99.90
17381;DHT22;8808;52.478;13.378;2023-09-19T04:57:36;17.70;99.90
17381;DHT22;8808;52.478;13.378;2023-09-19T05:00:05;17.70;99.90
17381;DHT22;8808;52.478;13.378;2023-09-19T05:02:38;17.70;99.90
17381;DHT22;8808;52.478;13.378;2023-09-19T05:05:06;17.70;99.90
17381;DHT22;8808;52.478;13.378;2023-09-19T05:07:34;18.20;99.90
17381;DHT22;8808;52.478;13.378;2023-09-19T05:10:02;18.20;99.90
17381;DHT22;8808;52.478;13.378;2023-09-19T05:12:32;18.20;99.90
17381;DHT22;8808;52.478;13.378;2023-09-19T05:14:59;17.90;99.90
17381;DHT22;8808;52.478;13.378;2023-09-19T05:17:27;18.10;99.90
17381;DHT22;8808;52.478;13.378;2023-09-19T05:19:53;18.30;99.90
17381;DHT22;8808;52.478;13.378;2023-09-19T05:22:20;18.00;99.90
17381;DHT22;8808;52.478;13.378;2023-09-19T05:24:50;17.80;99.90
17381;DHT22;8808;52.478;13.378;2023-09-19T05:27:20;17.70;99.90
17381;DHT22;8808;52.478;13.378;2023-09-19T05:29:47;17.70;99.90
17381;DHT22;8808;52.478;13.378;2023-09-19T05:32:16;17.80;99.90
17381;DHT22;8808;52.478;13.378;2023-09-19T05:34:45;17.80;99.90
17381;DHT22;8808;52.478;13.378;2023-09-19T05:37:13;17.70;99.90
17381;DHT22;8808;52.478;13.378;2023-09-19T05:39:42;17.60;99.90
17381;DHT22;8808;52.478;13.378;2023-09-19T05:42:09;17.60;99.90
17381;DHT22;8808;52.478;13.378;2023-09-19T05:44:37;17.60;99.90
17381;DHT22;8808;52.478;13.378;2023-09-19T05:47:04;17.70;99.90
17381;DHT22;8808;52.478;13.378;2023-09-19T05:49:34;17.70;99.90
17381;DHT22;8808;52.478;13.378;2023-09-19T05:52:04;17.60;99.90
17381;DHT22;8808;52.478;13.378;2023-09-19T05:54:31;17.60;99.90
17381;DHT22;8808;52.478;13.378;2023-09-19T05:56:59;17.60;99.90
17381;DHT22;8808;52.478;13.378;2023-09-19T05:59:27;17.60;99.90
17381;DHT22;8808;52.478;13.378;2023-09-19T06:01:55;17.70;99.90
17381;DHT22;8808;52.478;13.378;2023-09-19T06:04:22;17.70;99.90
17381;DHT22;8808;52.478;13.378;2023-09-19T06:06:49;17.60;99.90
17381;DHT22;8808;52.478;13.378;2023-09-19T06:09:16;17.60;99.90
17381;DHT22;8808;52.478;13.378;2023-09-19T06:11:44;17.60;99.90
17381;DHT22;8808;52.478;13.378;2023-09-19T06:14:12;17.60;99.90
17381;DHT22;8808;52.478;13.378;2023-09-19T06:16:40;17.60;99.90
17381;DHT22;8808;52.478;13.378;2023-09-19T06:19:10;17.70;99.90
17381;DHT22;8808;52.478;13.378;2023-09-19T06:21:37;17.70;99.90
17381;DHT22;8808;52.478;13.378;2023-09-19T06:24:05;17.70;99.90
17381;DHT22;8808;52.478;13.378;2023-09-19T06:26:32;17.80;99.90
17381;DHT22;8808;52.478;13.378;2023-09-19T06:28:58;17.80;99.90
17381;DHT22;8808;52.478;13.378;2023-09-19T06:31:26;18.10;99.90
17381;DHT22;8808;52.478;13.378;2023-09-19T06:33:53;18.00;99.90
17381;DHT22;8808;52.478;13.378;2023-09-19T06:36:21;17.90;99.90
17381;DHT22;8808;52.478;13.378;2023-09-19T06:38:48;17.90;99.90
17381;DHT22;8808;52.478;13.378;2023-09-19T06:41:17;18.00;99.90
17381;DHT22;8808;52.478;13.378;2023-09-19T06:43:44;18.20;99.90
17381;DHT22;8808;52.478;13.378;2023-09-19T06:46:11;18.20;99.90
17381;DHT22;8808;52.478;13.378;2023-09-19T06:48:38;18.20;99.90
17381;DHT22;8808;52.478;13.378;2023-09-19T06:51:06;18.10;99.90
17381;DHT22;8808;52.478;13.378;2023-09-19T06:53:35;18.20;99.90
17381;DHT22;8808;52.478;13.378;2023-09-19T06:56:02;18.30;99.90
17381;DHT22;8808;52.478;13.378;2023-09-19T06:58:29;18.40;99.90
17381;DHT22;8808;52.478;13.378;2023-09-19T07:00:57;18.40;99.90
17381;DHT22;8808;52.478;13.378;2023-09-19T07:03:24;18.50;99.90
17381;DHT22;8808;52.478;13.378;2023-09-19T07:05:52;18.80;99.90
17381;DHT22;8808;52.478;13.378;2023-09-19T07:08:21;18.80;99.90
17381;DHT22;8808;52.478;13.378;2023-09-19T07:10:50;19.00;99.90
17381;DHT22;8808;52.478;13.378;2023-09-19T07:13:18;19.50;99.90
17381;DHT22;8808;52.478;13.378;2023-09-19T07:15:45;19.40;99.90
17381;DHT22;8808;52.478;13.378;2023-09-19T07:18:16;19.40;99.90
17381;DHT22;8808;52.478;13.378;2023-09-19T07:20:44;19.30;99.90
17381;DHT22;8808;52.478;13.378;2023-09-19T07:23:14;19.30;99.90
17381;DHT22;8808;52.478;13.378;2023-09-19T07:25:42;19.90;99.90
17381;DHT22;8808;52.478;13.378;2023-09-19T07:28:10;19.80;99.90
17381;DHT22;8808;52.478;13.378;2023-09-19T07:30:37;19.80;99.90
17381;DHT22;8808;52.478;13.378;2023-09-19T07:33:05;19.60;99.90
17381;DHT22;8808;52.478;13.378;2023-09-19T07:35:32;19.60;99.90
17381;DHT22;8808;52.478;13.378;2023-09-19T07:37:59;19.90;99.90
17381;DHT22;8808;52.478;13.378;2023-09-19T07:40:28;20.60;99.90
17381;DHT22;8808;52.478;13.378;2023-09-19T07:42:55;20.80;99.90
17381;DHT22;8808;52.478;13.378;2023-09-19T07:45:24;20.70;99.90
17381;DHT22;8808;52.478;13.378;2023-09-19T07:47:51;21.10;99.90
17381;DHT22;8808;52.478;13.378;2023-09-19T07:50:19;21.70;99.90
17381;DHT22;8808;52.478;13.378;2023-09-19T07:52:46;22.00;99.90
17381;DHT22;8808;52.478;13.378;2023-09-19T07:55:16;21.80;99.90
17381;DHT22;8808;52.478;13.378;2023-09-19T07:57:45;21.00;99.90
17381;DHT22;8808;52.478;13.378;2023-09-19T08:00:13;21.00;99.90
17381;DHT22;8808;52.478;13.378;2023-09-19T08:02:43;21.50;99.90
17381;DHT22;8808;52.478;13.378;2023-09-19T08:05:12;21.40;99.90
17381;DHT22;8808;52.478;13.378;2023-09-19T08:07:42;20.60;99.90
17381;DHT22;8808;52.478;13.378;2023-09-19T08:10:11;20.10;99.90
17381;DHT22;8808;52.478;13.378;2023-09-19T08:12:38;20.30;99.90
17381;DHT22;8808;52.478;13.378;2023-09-19T08:15:12;19.90;99.90
17381;DHT22;8808;52.478;13.378;2023-09-19T08:17:39;20.20;99.90
17381;DHT22;8808;52.478;13.378;2023-09-19T08:20:09;20.10;99.90
17381;DHT22;8808;52.478;13.378;2023-09-19T08:22:43;20.70;99.90
17381;DHT22;8808;52.478;13.378;2023-09-19T08:25:12;20.10;99.90
17381;DHT22;8808;52.478;13.378;2023-09-19T08:27:39;19.80;99.90
17381;DHT22;8808;52.478;13.378;2023-09-19T08:30:06;19.50;99.90
17381;DHT22;8808;52.478;13.378;2023-09-19T08:32:33;19.40;99.90
17381;DHT22;8808;52.478;13.378;2023-09-19T08:35:00;19.90;99.90
17381;DHT22;8808;52.478;13.378;2023-09-19T08:37:28;19.60;99.90
17381;DHT22;8808;52.478;13.378;2023-09-19T08:39:55;19.90;99.90
17381;DHT22;8808;52.478;13.378;2023-09-19T08:42:23;20.10;99.90
17381;DHT22;8808;52.478;13.378;2023-09-19T08:44:51;20.70;99.90
17381;DHT22;8808;52.478;13.378;2023-09-19T08:47:33;20.80;99.90
17381;DHT22;8808;52.478;13.378;2023-09-19T08:50:09;21.30;99.90
17381;DHT22;8808;52.478;13.378;2023-09-19T08:52:43;20.50;99.90
17381;DHT22;8808;52.478;13.378;2023-09-19T08:55:12;20.20;99.90
17381;DHT22;8808;52.478;13.378;2023-09-19T08:57:46;21.10;99.90
17381;DHT22;8808;52.478;13.378;2023-09-19T09:00:16;20.20;99.90
17381;DHT22;8808;52.478;13.378;2023-09-19T09:02:44;20.30;99.90
17381;DHT22;8808;52.478;13.378;2023-09-19T09:05:13;20.50;99.90
17381;DHT22;8808;52.478;13.378;2023-09-19T09:07:44;20.60;99.90
17381;DHT22;8808;52.478;13.378;2023-09-19T09:10:11;20.30;99.90
17381;DHT22;8808;52.478;13.378;2023-09-19T09:12:38;20.20;99.90
17381;DHT22;8808;52.478;13.378;2023-09-19T09:15:07;20.00;99.90
17381;DHT22;8808;52.478;13.378;2023-09-19T09:17:37;20.50;99.90
17381;DHT22;8808;52.478;13.378;2023-09-19T09:20:05;20.60;99.90
17381;DHT22;8808;52.478;13.378;2023-09-19T09:22:34;20.90;99.90
17381;DHT22;8808;52.478;13.378;2023-09-19T09:25:04;20.70;99.90
17381;DHT22;8808;52.478;13.378;2023-09-19T09:27:31;21.20;99.90
17381;DHT22;8808;52.478;13.378;2023-09-19T09:29:59;20.90;99.90
17381;DHT22;8808;52.478;13.378;2023-09-19T09:32:27;21.10;99.90
17381;DHT22;8808;52.478;13.378;2023-09-19T09:34:57;20.60;99.90
17381;DHT22;8808;52.478;13.378;2023-09-19T09:37:25;20.60;99.90
17381;DHT22;8808;52.478;13.378;2023-09-19T09:39:53;20.60;99.90
17381;DHT22;8808;52.478;13.378;2023-09-19T09:42:33;20.50;99.90
17381;DHT22;8808;52.478;13.378;2023-09-19T09:45:18;20.50;99.90
17381;DHT22;8808;52.478;13.378;2023-09-19T09:47:54;20.30;99.90
17381;DHT22;8808;52.478;13.378;2023-09-19T09:50:26;20.40;99.90
17381;DHT22;8808;52.478;13.378;2023-09-19T09:52:55;20.80;99.90
17381;DHT22;8808;52.478;13.378;2023-09-19T09:55:59;20.40;99.90
17381;DHT22;8808;52.478;13.378;2023-09-19T09:58:31;19.90;99.90
17381;DHT22;8808;52.478;13.378;2023-09-19T10:00:59;19.70;99.90
17381;DHT22;8808;52.478;13.378;2023-09-19T10:03:34;20.30;99.90
17381;DHT22;8808;52.478;13.378;2023-09-19T10:06:06;20.70;99.90
17381;DHT22;8808;52.478;13.378;2023-09-19T10:09:00;20.70;99.90
17381;DHT22;8808;52.478;13.378;2023-09-19T10:11:45;20.70;99.90
17381;DHT22;8808;52.478;13.378;2023-09-19T10:14:15;21.00;99.90
17381;DHT22;8808;52.478;13.378;2023-09-19T10:16:46;20.70;99.90
17381;DHT22;8808;52.478;13.378;2023-09-19T10:19:16;21.10;99.90
17381;DHT22;8808;52.478;13.378;2023-09-19T10:21:46;21.50;99.90
17381;DHT22;8808;52.478;13.378;2023-09-19T10:24:14;21.50;99.90
17381;DHT22;8808;52.478;13.378;2023-09-19T10:26:44;21.20;99.90
17381;DHT22;8808;52.478;13.378;2023-09-19T10:29:15;21.40;99.90
17381;DHT22;8808;52.478;13.378;2023-09-19T10:31:44;21.50;99.90
17381;DHT22;8808;52.478;13.378;2023-09-19T10:34:14;21.40;99.90
17381;DHT22;8808;52.478;13.378;2023-09-19T10:36:44;22.10;99.90
17381;DHT22;8808;52.478;13.378;2023-09-19T10:39:14;22.00;99.90
17381;DHT22;8808;52.478;13.378;2023-09-19T10:41:49;21.80;99.90
17381;DHT22;8808;52.478;13.378;2023-09-19T10:44:23;21.60;99.90
17381;DHT22;8808;52.478;13.378;2023-09-19T10:46:51;21.90;99.90
17381;DHT22;8808;52.478;13.378;2023-09-19T10:49:19;21.90;99.90
17381;DHT22;8808;52.478;13.378;2023-09-19T10:51:47;21.80;99.90
17381;DHT22;8808;52.478;13.378;2023-09-19T10:54:18;21.80;99.90
17381;DHT22;8808;52.478;13.378;2023-09-19T10:56:49;21.80;99.90
17381;DHT22;8808;52.478;13.378;2023-09-19T10:59:18;21.70;99.90
17381;DHT22;8808;52.478;13.378;2023-09-19T11:01:49;22.40;99.90
17381;DHT22;8808;52.478;13.378;2023-09-19T11:04:26;22.10;99.90
17381;DHT22;8808;52.478;13.378;2023-09-19T11:07:03;22.30;99.90
17381;DHT22;8808;52.478;13.378;2023-09-19T11:09:44;22.10;99.90
17381;DHT22;8808;52.478;13.378;2023-09-19T11:12:26;22.40;99.90
17381;DHT22;8808;52.478;13.378;2023-09-19T11:15:07;22.40;99.90
17381;DHT22;8808;52.478;13.378;2023-09-19T11:17:38;22.40;99.90
17381;DHT22;8808;52.478;13.378;2023-09-19T11:20:25;22.40;99.90
17381;DHT22;8808;52.478;13.378;2023-09-19T11:23:19;22.50;99.90
17381;DHT22;8808;52.478;13.378;2023-09-19T11:25:49;22.20;99.90
17381;DHT22;8808;52.478;13.378;2023-09-19T11:28:35;21.90;99.90
17381;DHT22;8808;52.478;13.378;2023-09-19T11:34:38;21.80;99.90
17381;DHT22;8808;52.478;13.378;2023-09-19T11:40:07;22.10;99.90
17381;DHT22;8808;52.478;13.378;2023-09-19T11:42:42;22.00;99.90
17381;DHT22;8808;52.478;13.378;2023-09-19T11:48:12;21.60;99.90
17381;DHT22;8808;52.478;13.378;2023-09-19T11:50:43;21.50;98.30
17381;DHT22;8808;52.478;13.378;2023-09-19T11:53:11;21.30;97.90
17381;DHT22;8808;52.478;13.378;2023-09-19T11:55:39;21.40;97.30
17381;DHT22;8808;52.478;13.378;2023-09-19T11:58:07;21.30;95.90
17381;DHT22;8808;52.478;13.378;2023-09-19T12:00:35;21.80;97.90
17381;DHT22;8808;52.478;13.378;2023-09-19T12:03:09;21.80;97.30
17381;DHT22;8808;52.478;13.378;2023-09-19T12:05:36;21.90;97.10
17381;DHT22;8808;52.478;13.378;2023-09-19T12:08:05;21.80;99.90
17381;DHT22;8808;52.478;13.378;2023-09-19T12:10:47;21.80;96.90
17381;DHT22;8808;52.478;13.378;2023-09-19T12:13:16;21.80;97.70
17381;DHT22;8808;52.478;13.378;2023-09-19T12:15:44;21.30;94.50
17381;DHT22;8808;52.478;13.378;2023-09-19T12:18:26;21.70;98.00
17381;DHT22;8808;52.478;13.378;2023-09-19T12:20:53;22.10;99.90
17381;DHT22;8808;52.478;13.378;2023-09-19T12:23:22;22.70;99.90
17381;DHT22;8808;52.478;13.378;2023-09-19T12:25:51;23.00;99.90
17381;DHT22;8808;52.478;13.378;2023-09-19T12:28:23;22.90;99.90
17381;DHT22;8808;52.478;13.378;2023-09-19T12:30:53;22.70;99.30
17381;DHT22;8808;52.478;13.378;2023-09-19T12:33:21;22.70;99.90
17381;DHT22;8808;52.478;13.378;2023-09-19T12:35:51;23.20;99.00
17381;DHT22;8808;52.478;13.378;2023-09-19T12:38:25;23.60;99.90
17381;DHT22;8808;52.478;13.378;2023-09-19T12:40:55;23.60;99.90
17381;DHT22;8808;52.478;13.378;2023-09-19T12:43:22;23.40;95.40
17381;DHT22;8808;52.478;13.378;2023-09-19T12:45:50;23.50;99.90
17381;DHT22;8808;52.478;13.378;2023-09-19T12:48:20;23.30;99.90
17381;DHT22;8808;52.478;13.378;2023-09-19T12:51:04;23.10;99.90
17381;DHT22;8808;52.478;13.378;2023-09-19T12:53:35;23.20;99.90
17381;DHT22;8808;52.478;13.378;2023-09-19T12:56:06;23.60;98.60
17381;DHT22;8808;52.478;13.378;2023-09-19T12:58:34;23.70;99.90
17381;DHT22;8808;52.478;13.378;2023-09-19T13:01:14;23.30;99.90
17381;DHT22;8808;52.478;13.378;2023-09-19T13:03:41;23.30;99.20
17381;DHT22;8808;52.478;13.378;2023-09-19T13:06:08;23.40;99.90
17381;DHT22;8808;52.478;13.378;2023-09-19T13:08:37;23.40;99.90
17381;DHT22;8808;52.478;13.378;2023-09-19T13:11:11;23.50;98.70
17381;DHT22;8808;52.478;13.378;2023-09-19T13:13:40;22.90;94.00
17381;DHT22;8808;52.478;13.378;2023-09-19T13:16:07;22.70;94.70
17381;DHT22;8808;52.478;13.378;2023-09-19T13:18:46;22.70;98.00
17381;DHT22;8808;52.478;13.378;2023-09-19T13:21:14;23.30;96.00
17381;DHT22;8808;52.478;13.378;2023-09-19T13:23:53;23.30;94.50
17381;DHT22;8808;52.478;13.378;2023-09-19T13:26:24;23.10;95.40
17381;DHT22;8808;52.478;13.378;2023-09-19T13:28:51;23.40;97.10
17381;DHT22;8808;52.478;13.378;2023-09-19T13:31:18;23.40;96.40
17381;DHT22;8808;52.478;13.378;2023-09-19T13:33:47;23.30;92.70
17381;DHT22;8808;52.478;13.378;2023-09-19T13:36:14;23.30;92.50
17381;DHT22;8808;52.478;13.378;2023-09-19T13:38:41;23.30;95.00
17381;DHT22;8808;52.478;13.378;2023-09-19T13:41:10;23.30;96.20
17381;DHT22;8808;52.478;13.378;2023-09-19T13:43:38;23.10;97.10
17381;DHT22;8808;52.478;13.378;2023-09-19T13:46:05;23.50;96.80
17381;DHT22;8808;52.478;13.378;2023-09-19T13:48:37;23.40;96.20
17381;DHT22;8808;52.478;13.378;2023-09-19T13:51:04;23.50;96.50
17381;DHT22;8808;52.478;13.378;2023-09-19T13:53:31;23.30;95.60
17381;DHT22;8808;52.478;13.378;2023-09-19T13:55:58;23.30;96.50
17381;DHT22;8808;52.478;13.378;2023-09-19T13:58:26;23.60;96.20
17381;DHT22;8808;52.478;13.378;2023-09-19T14:00:55;23.50;96.10
17381;DHT22;8808;52.478;13.378;2023-09-19T14:03:23;23.40;96.40
17381;DHT22;8808;52.478;13.378;2023-09-19T14:05:53;23.50;96.30
17381;DHT22;8808;52.478;13.378;2023-09-19T14:08:20;23.00;91.00
17381;DHT22;8808;52.478;13.378;2023-09-19T14:10:48;22.40;91.80
17381;DHT22;8808;52.478;13.378;2023-09-19T14:13:15;22.60;94.40
17381;DHT22;8808;52.478;13.378;2023-09-19T14:15:44;22.40;93.40
17381;DHT22;8808;52.478;13.378;2023-09-19T14:18:11;22.60;95.40
17381;DHT22;8808;52.478;13.378;2023-09-19T14:23:06;22.60;94.90
17381;DHT22;8808;52.478;13.378;2023-09-19T14:25:34;22.50;98.30
17381;DHT22;8808;52.478;13.378;2023-09-19T14:28:02;22.30;99.70
17381;DHT22;8808;52.478;13.378;2023-09-19T14:30:29;22.80;99.90
17381;DHT22;8808;52.478;13.378;2023-09-19T14:32:57;22.30;94.60
17381;DHT22;8808;52.478;13.378;2023-09-19T14:35:24;22.70;98.40
17381;DHT22;8808;52.478;13.378;2023-09-19T14:37:51;23.20;99.90
17381;DHT22;8808;52.478;13.378;2023-09-19T14:40:18;22.80;96.50
17381;DHT22;8808;52.478;13.378;2023-09-19T14:42:46;21.90;93.40
17381;DHT22;8808;52.478;13.378;2023-09-19T14:45:13;22.30;94.80
17381;DHT22;8808;52.478;13.378;2023-09-19T14:47:43;22.60;94.00
17381;DHT22;8808;52.478;13.378;2023-09-19T14:50:12;22.70;99.90
17381;DHT22;8808;52.478;13.378;2023-09-19T14:52:40;22.70;98.20
17381;DHT22;8808;52.478;13.378;2023-09-19T14:55:07;22.20;95.80
17381;DHT22;8808;52.478;13.378;2023-09-19T14:57:40;22.40;95.10
17381;DHT22;8808;52.478;13.378;2023-09-19T15:00:08;22.10;98.00
17381;DHT22;8808;52.478;13.378;2023-09-19T15:02:38;22.50;95.90
17381;DHT22;8808;52.478;13.378;2023-09-19T15:05:06;22.10;95.00
17381;DHT22;8808;52.478;13.378;2023-09-19T15:07:36;22.60;99.90
17381;DHT22;8808;52.478;13.378;2023-09-19T15:10:04;22.30;96.10
17381;DHT22;8808;52.478;13.378;2023-09-19T15:12:32;22.60;99.90
17381;DHT22;8808;52.478;13.378;2023-09-19T15:15:01;22.00;96.80
17381;DHT22;8808;52.478;13.378;2023-09-19T15:17:28;21.40;95.30
17381;DHT22;8808;52.478;13.378;2023-09-19T15:19:55;22.20;99.90
17381;DHT22;8808;52.478;13.378;2023-09-19T15:22:22;22.20;99.90
17381;DHT22;8808;52.478;13.378;2023-09-19T15:24:51;22.60;94.60
17381;DHT22;8808;52.478;13.378;2023-09-19T15:27:18;22.40;96.30
17381;DHT22;8808;52.478;13.378;2023-09-19T15:29:45;22.50;99.90
17381;DHT22;8808;52.478;13.378;2023-09-19T15:32:13;22.50;99.90
17381;DHT22;8808;52.478;13.378;2023-09-19T15:34:40;22.50;99.90
17381;DHT22;8808;52.478;13.378;2023-09-19T15:37:06;22.40;99.90
17381;DHT22;8808;52.478;13.378;2023-09-19T15:39:33;22.70;99.90
17381;DHT22;8808;52.478;13.378;2023-09-19T15:42:04;22.10;94.90
17381;DHT22;8808;52.478;13.378;2023-09-19T15:44:31;22.20;99.90
17381;DHT22;8808;52.478;13.378;2023-09-19T15:46:59;22.90;99.90
17381;DHT22;8808;52.478;13.378;2023-09-19T15:49:26;22.50;99.90
17381;DHT22;8808;52.478;13.378;2023-09-19T15:51:53;22.20;95.60
17381;DHT22;8808;52.478;13.378;2023-09-19T15:54:20;21.90;99.00
17381;DHT22;8808;52.478;13.378;2023-09-19T15:56:47;21.90;97.20